Бајина Башта, Босна и Херцеговина

21. јул 2017, 02:33 CEST (GMT +0200)
Tuzla | | Change Station

Надм.вис. 784 ft 44.46 °N, 18.73 °E | Updated 2 hours ago

Ведро
Ведро
66 °F
Субјективни осећај 66 °F
С
1
Ветар Променљив Ветар из Променљив

Данас
Макс. -- | Мин. -- °F
--% Вероватноћа за падавине
Јуче
Макс. -- | Мин. -- °F
Precip. -- инч
Притисак 29.89 инч
Видљивост -9999.0 миља
Облаци
Тачка росе 64 °F
Влажност ваздуха 94%
Киша 0.00 инч
Висина снега Није доступно.
5:18 AM 8:17 PM
Последња четвртина, 8% visible
METAR LQTZ 202200Z VRB01KT CAVOK 19/18 Q1012
Притисак 29.89 инч
Видљивост -9999.0 миља
Облаци
Тачка росе 64 °F
Влажност ваздуха 94%
Киша 0.00 инч
Висина снега Није доступно.
5:18 AM 8:17 PM
Последња четвртина, 8% visible
METAR LQTZ 202200Z VRB01KT CAVOK 19/18 Q1012

Get Severe Weather Alerts

Thanks for signing up!

Be on the lookout for a verification email in your inbox.

You'll start receiving the daily forecast at 6 AM.

×

10-Day Weather Forecast

No radar image for this location.
×

Almanac

Астрономија

Jul. 21, 2017 Излазак Залазак
Тренутно време
Цивилни сумрак
Наутички сумрак
Астрономски сумрак
Месец
Трајање видљиве светлости
Обданица
Tomorrow will be .
, % of the Moon is Illuminated

Данашњи екстреми

Највише Најниже

Community

Category 6

Welcome to Category 6. This is the collective home for Weather Underground's featured writeups by Dr. Jeff Masters (right), Bob Henson (left), Chris Burt, and other regular contributors.

Nearby

Квалитет ваздуха (AQ)

  Квалитет ваздуха (AQ) Индекс AQ Загађење
Not available.

Висина снега

станица Висина снега Висина

Земљотрес

Место Удаљеност Магнитуда Време и датум
Минимална магнитуда која се објављује је 2.5

Темп. воде у приобаљу

Место Температура

Stations

Оближње метео-станице

Локација станице Темп. Субјективни осећај Тачка росе Влажност ваздуха Ветар Precip. Надм.вис. Ажурирано Тип